Time;durP1;ratioP1;P1;durP2;ratioP2;P2;SDS_P1;SDS_P2;PMS_P1;PMS_P2;Temp;Humidity;BMP_temperature;BMP_pressure;BME280_temperature;BME280_humidity;BME280_pressure;Samples;Min_cycle;Max_cycle;Signal;HPM_P1;HPM_P2
2022/09/27 00:01:05;;;;;;;4.40;1.13;;;10.30;99.90;;;;;;5011855;28;20467;-74
2022/09/27 00:03:31;;;;;;;0.70;0.70;;;10.30;99.90;;;;;;5012147;28;20423;-75
2022/09/27 00:06:06;;;;;;;0.70;0.70;;;10.20;99.90;;;;;;5011981;28;20933;-73
2022/09/27 00:08:34;;;;;;;0.83;0.83;;;10.20;99.90;;;;;;5012060;28;20429;-73
2022/09/27 00:11:04;;;;;;;1.20;1.00;;;10.30;99.90;;;;;;5011924;28;20431;-73
2022/09/27 00:13:29;;;;;;;2.87;0.90;;;10.20;99.90;;;;;;5012297;28;20425;-73
2022/09/27 00:16:00;;;;;;;1.30;0.90;;;10.20;99.90;;;;;;5011749;28;20426;-73
2022/09/27 00:18:26;;;;;;;1.47;1.00;;;10.20;99.90;;;;;;5011989;28;20214;-73
2022/09/27 00:20:52;;;;;;;2.20;0.60;;;10.20;99.90;;;;;;5011802;28;20488;-73
2022/09/27 00:23:18;;;;;;;1.40;0.70;;;10.20;99.90;;;;;;5011799;28;20191;-73
2022/09/27 00:25:54;;;;;;;1.33;0.73;;;10.20;99.90;;;;;;5011842;28;20414;-74
2022/09/27 00:28:20;;;;;;;1.30;0.97;;;10.20;99.90;;;;;;5011861;28;20178;-73
2022/09/27 00:30:45;;;;;;;0.80;0.80;;;10.20;99.90;;;;;;5011954;28;20515;-73
2022/09/27 00:33:11;;;;;;;2.50;0.83;;;10.20;99.90;;;;;;5011607;28;20676;-73
2022/09/27 00:35:36;;;;;;;2.63;0.63;;;10.20;99.90;;;;;;5011644;28;20208;-73
2022/09/27 00:38:02;;;;;;;1.63;0.70;;;10.20;99.90;;;;;;5011543;28;20287;-73
2022/09/27 00:40:27;;;;;;;1.00;0.80;;;10.20;99.90;;;;;;5011757;28;20516;-73
2022/09/27 00:42:53;;;;;;;2.63;0.60;;;10.20;99.90;;;;;;5011601;28;20203;-73
2022/09/27 00:45:18;;;;;;;0.80;0.80;;;10.10;99.90;;;;;;5011538;28;20604;-73
2022/09/27 00:47:57;;;;;;;0.70;0.70;;;10.10;99.90;;;;;;5011629;28;20181;-74
2022/09/27 00:50:31;;;;;;;2.50;0.60;;;10.10;99.90;;;;;;5011647;28;20172;-72
2022/09/27 00:53:11;;;;;;;3.17;0.70;;;10.20;99.90;;;;;;5011416;28;20801;-75
2022/09/27 00:56:02;;;;;;;0.50;0.50;;;10.20;99.90;;;;;;5011237;28;20991;-75
2022/09/27 00:58:40;;;;;;;1.43;0.60;;;10.20;99.90;;;;;;5011077;28;21010;-73
2022/09/27 02:31:43;;;;;;;0.90;0.60;;;10.10;99.90;;;;;;5626543;22;20521;-71
2022/09/27 02:34:22;;;;;;;0.63;0.40;;;10.00;99.90;;;;;;5038922;28;20898;-73
2022/09/27 02:36:48;;;;;;;4.10;0.60;;;10.00;99.90;;;;;;5032909;28;20179;-72
2022/09/27 02:39:15;;;;;;;2.40;0.50;;;10.00;99.90;;;;;;5033519;28;20465;-72
2022/09/27 02:41:40;;;;;;;1.23;0.50;;;10.00;99.90;;;;;;5033126;28;20443;-73
2022/09/27 02:44:10;;;;;;;2.07;0.50;;;9.90;99.90;;;;;;5033316;28;20418;-72
2022/09/27 02:46:39;;;;;;;1.13;0.40;;;9.90;99.90;;;;;;5033088;28;20179;-72
2022/09/27 02:49:50;;;;;;;0.40;0.40;;;9.90;99.90;;;;;;5033478;28;20805;-74
2022/09/27 02:52:47;;;;;;;0.50;0.50;;;9.80;99.90;;;;;;5032886;28;20785;-72
2022/09/27 02:55:41;;;;;;;0.50;0.50;;;9.80;99.90;;;;;;5032650;28;20438;-72
2022/09/27 02:58:19;;;;;;;0.60;0.60;;;9.70;99.90;;;;;;5032914;28;20454;-71
2022/09/27 03:01:08;;;;;;;2.00;0.50;;;9.70;99.90;;;;;;5033106;28;20426;-72
2022/09/27 03:04:03;;;;;;;0.63;0.50;;;9.70;99.90;;;;;;5032987;28;20421;-73
2022/09/27 03:06:30;;;;;;;1.93;0.50;;;9.60;99.90;;;;;;5032879;28;20528;-72
2022/09/27 03:08:56;;;;;;;0.97;0.43;;;9.60;99.90;;;;;;5032846;28;20407;-72
2022/09/27 03:11:22;;;;;;;0.77;0.60;;;9.50;99.90;;;;;;5032780;28;20436;-72
2022/09/27 03:13:47;;;;;;;4.63;0.70;;;9.40;99.90;;;;;;5032640;28;20182;-73
2022/09/27 03:16:14;;;;;;;1.77;0.80;;;9.30;99.90;;;;;;5032463;28;20168;-72
2022/09/27 03:18:40;;;;;;;2.77;0.77;;;9.30;99.90;;;;;;5032690;28;20207;-72
2022/09/27 03:21:06;;;;;;;1.90;0.70;;;9.30;99.90;;;;;;5032444;28;21010;-72
2022/09/27 03:23:31;;;;;;;1.97;0.83;;;9.20;99.90;;;;;;5032125;28;20721;-72
2022/09/27 03:25:57;;;;;;;2.30;0.70;;;9.20;99.90;;;;;;5032620;28;20195;-72
2022/09/27 03:28:24;;;;;;;3.77;0.80;;;9.20;99.90;;;;;;5032453;28;20550;-72
2022/09/27 03:30:50;;;;;;;1.83;0.77;;;9.20;99.90;;;;;;5032355;28;20236;-72
2022/09/27 03:33:15;;;;;;;1.37;0.60;;;9.20;99.90;;;;;;5032323;28;20428;-73
2022/09/27 03:35:42;;;;;;;1.27;0.50;;;9.20;99.90;;;;;;5032585;28;20258;-72
2022/09/27 03:38:08;;;;;;;4.43;0.80;;;9.20;99.90;;;;;;5032626;28;20615;-72
2022/09/27 03:40:33;;;;;;;2.33;0.73;;;9.20;99.90;;;;;;5032601;28;20494;-71
2022/09/27 03:42:59;;;;;;;5.10;0.80;;;9.20;99.90;;;;;;5032438;28;20446;-72
2022/09/27 03:45:24;;;;;;;0.77;0.60;;;9.20;99.90;;;;;;5032207;28;20171;-73
2022/09/27 03:47:50;;;;;;;4.00;0.80;;;9.20;99.90;;;;;;5032379;28;20201;-72
2022/09/27 03:50:16;;;;;;;2.73;1.40;;;9.20;99.90;;;;;;5032397;28;20172;-72
2022/09/27 03:52:42;;;;;;;3.20;0.77;;;9.20;99.90;;;;;;5032206;28;20191;-73
2022/09/27 03:55:09;;;;;;;4.00;1.00;;;9.20;99.90;;;;;;5032045;28;20171;-72
2022/09/27 03:57:34;;;;;;;1.67;0.80;;;9.20;99.90;;;;;;5032268;28;20410;-72
2022/09/27 04:00:00;;;;;;;2.97;1.00;;;9.20;99.90;;;;;;5032140;28;20929;-72
2022/09/27 04:02:26;;;;;;;3.27;1.23;;;9.20;99.90;;;;;;5031930;28;20211;-72
2022/09/27 04:04:52;;;;;;;1.30;1.10;;;9.20;99.90;;;;;;5031777;28;20653;-72
2022/09/27 04:07:17;;;;;;;2.63;1.10;;;9.30;99.90;;;;;;5032088;28;20412;-71
2022/09/27 04:09:45;;;;;;;7.10;1.70;;;9.30;99.90;;;;;;5032061;28;20203;-72
2022/09/27 04:12:11;;;;;;;4.60;1.23;;;9.30;99.90;;;;;;5031819;28;20283;-72
2022/09/27 04:14:36;;;;;;;1.60;1.10;;;9.30;99.90;;;;;;5032110;28;20999;-71
2022/09/27 04:17:02;;;;;;;7.73;1.80;;;9.30;99.90;;;;;;5032454;28;20237;-72
2022/09/27 04:19:28;;;;;;;8.57;1.50;;;9.30;99.90;;;;;;5032014;28;20221;-72
2022/09/27 04:21:53;;;;;;;4.70;1.47;;;9.40;99.90;;;;;;5032675;28;20219;-72
2022/09/27 04:24:18;;;;;;;2.87;1.30;;;9.40;99.90;;;;;;5031892;28;20184;-72
2022/09/27 04:26:44;;;;;;;5.50;1.80;;;9.40;99.90;;;;;;5031975;28;20652;-72
2022/09/27 04:29:11;;;;;;;4.50;2.10;;;9.40;99.90;;;;;;5032207;28;20193;-72
2022/09/27 04:31:36;;;;;;;5.70;1.40;;;9.40;99.90;;;;;;5031467;28;20671;-72
2022/09/27 04:34:05;;;;;;;4.73;2.70;;;9.40;99.90;;;;;;5031905;28;20503;-72
2022/09/27 04:36:31;;;;;;;4.57;1.60;;;9.40;99.90;;;;;;5035762;28;20291;-72
2022/09/27 04:39:00;;;;;;;9.00;1.53;;;9.40;99.90;;;;;;5036116;28;20557;-72
2022/09/27 04:41:27;;;;;;;1.47;1.37;;;9.40;99.90;;;;;;5035841;28;20443;-72
2022/09/27 04:43:56;;;;;;;6.07;1.87;;;9.40;99.90;;;;;;5035951;28;20410;-72
2022/09/27 04:46:22;;;;;;;5.00;1.40;;;9.40;99.90;;;;;;5035815;28;20409;-72
2022/09/27 04:48:48;;;;;;;3.10;2.43;;;9.40;99.90;;;;;;5034476;28;20516;-73
2022/09/27 04:51:17;;;;;;;3.67;1.90;;;9.40;99.90;;;;;;5034767;28;20545;-72
2022/09/27 04:53:44;;;;;;;5.77;2.03;;;9.40;99.90;;;;;;5035779;28;20174;-72
2022/09/27 04:56:10;;;;;;;2.87;2.10;;;9.40;99.90;;;;;;5035306;28;20409;-72
2022/09/27 04:58:35;;;;;;;3.23;1.83;;;9.50;99.90;;;;;;5035518;28;20501;-73
2022/09/27 05:01:02;;;;;;;1.70;1.40;;;9.50;99.90;;;;;;5035413;28;20442;-71
2022/09/27 05:03:29;;;;;;;2.60;1.40;;;9.50;99.90;;;;;;5035634;28;20177;-72
2022/09/27 05:05:54;;;;;;;3.20;1.83;;;9.50;99.90;;;;;;5035424;28;20792;-70
2022/09/27 05:08:20;;;;;;;3.27;1.63;;;9.50;99.90;;;;;;5035233;28;20424;-70
2022/09/27 05:10:46;;;;;;;2.53;1.40;;;9.50;99.90;;;;;;5035192;28;20186;-70
2022/09/27 05:13:13;;;;;;;4.33;1.87;;;9.60;99.90;;;;;;5035153;28;20176;-72
2022/09/27 05:15:39;;;;;;;1.83;1.40;;;9.60;99.90;;;;;;5035100;28;20763;-72
2022/09/27 05:18:07;;;;;;;4.70;2.93;;;9.60;99.90;;;;;;5034776;28;20450;-72
2022/09/27 05:20:33;;;;;;;5.47;1.33;;;9.60;99.90;;;;;;5035072;28;20168;-70
2022/09/27 05:22:59;;;;;;;9.10;1.87;;;9.60;99.90;;;;;;5034854;28;20416;-72
2022/09/27 05:25:24;;;;;;;5.13;2.40;;;9.60;99.90;;;;;;5034621;28;20948;-72
2022/09/27 05:27:50;;;;;;;2.47;1.33;;;9.50;99.90;;;;;;5034775;28;20691;-72
2022/09/27 05:30:16;;;;;;;4.27;1.30;;;9.50;99.90;;;;;;5034649;28;20195;-72
2022/09/27 05:32:42;;;;;;;3.40;1.40;;;9.50;99.90;;;;;;5034579;28;20209;-72
2022/09/27 05:35:08;;;;;;;3.20;1.20;;;9.50;99.90;;;;;;5034774;28;20545;-72
2022/09/27 05:37:34;;;;;;;4.60;1.87;;;9.60;99.90;;;;;;5034543;28;20410;-72
2022/09/27 05:40:00;;;;;;;3.47;1.30;;;9.60;99.90;;;;;;5034457;28;20237;-73
2022/09/27 05:42:25;;;;;;;1.60;1.27;;;9.60;99.90;;;;;;5034499;28;20762;-72
2022/09/27 05:44:51;;;;;;;2.03;1.30;;;9.60;99.90;;;;;;5034325;28;20171;-72
2022/09/27 05:47:16;;;;;;;3.67;1.40;;;9.60;99.90;;;;;;5033239;28;20558;-72
2022/09/27 05:49:42;;;;;;;3.10;1.13;;;9.60;99.90;;;;;;5034486;28;20541;-73
2022/09/27 05:52:07;;;;;;;2.73;1.20;;;9.50;99.90;;;;;;5034358;28;20628;-73
2022/09/27 05:54:33;;;;;;;4.03;1.17;;;9.50;99.90;;;;;;5034093;28;20285;-73
2022/09/27 05:56:59;;;;;;;3.63;0.80;;;9.50;99.90;;;;;;5034613;28;20207;-73
2022/09/27 05:59:25;;;;;;;3.70;1.17;;;9.50;99.90;;;;;;5034636;28;20288;-73
2022/09/27 06:01:52;;;;;;;1.27;1.17;;;9.60;99.90;;;;;;5034365;28;20805;-73
2022/09/27 06:04:18;;;;;;;1.87;1.00;;;9.50;99.90;;;;;;5034102;28;20901;-73
2022/09/27 06:06:44;;;;;;;1.70;1.40;;;9.60;99.90;;;;;;5034443;28;20493;-72
2022/09/27 06:09:12;;;;;;;2.13;1.30;;;9.60;99.90;;;;;;5034237;28;20514;-73
2022/09/27 06:11:37;;;;;;;1.07;0.90;;;9.60;99.90;;;;;;5034094;28;20872;-72
2022/09/27 06:14:03;;;;;;;3.50;1.10;;;9.60;99.90;;;;;;5034136;28;20499;-73
2022/09/27 06:16:29;;;;;;;2.00;1.17;;;9.60;99.90;;;;;;5033844;28;20177;-73
2022/09/27 06:18:55;;;;;;;3.80;0.97;;;9.60;99.90;;;;;;5034044;28;20975;-73
2022/09/27 06:21:21;;;;;;;2.40;1.20;;;9.60;99.90;;;;;;5033576;28;20604;-73
2022/09/27 06:23:47;;;;;;;3.07;0.97;;;9.70;99.90;;;;;;5034077;28;20386;-73
2022/09/27 06:26:12;;;;;;;2.17;1.00;;;9.70;99.90;;;;;;5033681;28;20461;-72
2022/09/27 06:28:38;;;;;;;3.07;1.00;;;9.80;99.90;;;;;;5034049;28;20545;-73
2022/09/27 06:31:07;;;;;;;2.90;0.80;;;9.90;99.90;;;;;;5033822;28;20215;-73
2022/09/27 06:33:33;;;;;;;0.80;0.80;;;10.00;99.90;;;;;;5034036;28;21042;-73
2022/09/27 06:36:06;;;;;;;1.50;0.70;;;10.20;99.90;;;;;;5033725;28;20407;-73
2022/09/27 06:38:32;;;;;;;2.00;0.77;;;10.50;99.90;;;;;;5033404;28;20970;-73
2022/09/27 06:41:01;;;;;;;0.70;0.70;;;10.70;99.90;;;;;;5033575;28;20439;-73
2022/09/27 06:43:26;;;;;;;0.70;0.70;;;10.70;99.90;;;;;;5033422;28;20687;-73
2022/09/27 06:45:52;;;;;;;0.80;0.70;;;10.60;99.90;;;;;;5033627;28;20455;-73
2022/09/27 06:48:18;;;;;;;0.70;0.50;;;10.50;99.90;;;;;;5033377;28;20519;-73
2022/09/27 06:50:45;;;;;;;1.47;0.67;;;10.40;99.90;;;;;;5033493;28;20181;-73
2022/09/27 06:53:13;;;;;;;0.70;0.67;;;10.30;99.90;;;;;;5033246;28;20282;-73
2022/09/27 06:55:39;;;;;;;1.07;0.60;;;10.20;99.90;;;;;;5033033;28;20429;-74
2022/09/27 07:00:52;;;;;;;0.40;0.40;;;10.00;99.90;;;;;;5033278;28;20422;-73
2022/09/27 07:03:18;;;;;;;0.60;0.50;;;9.90;99.90;;;;;;5032948;28;20493;-73
2022/09/27 07:06:01;;;;;;;0.50;0.50;;;10.00;99.90;;;;;;5033154;28;20414;-73
2022/09/27 07:08:30;;;;;;;0.70;0.50;;;10.00;99.90;;;;;;5032792;28;20423;-73
2022/09/27 07:11:01;;;;;;;1.40;1.03;;;10.00;99.90;;;;;;5032738;28;20795;-74
2022/09/27 07:13:30;;;;;;;1.00;0.50;;;10.20;99.90;;;;;;5032682;28;20473;-73
2022/09/27 07:15:55;;;;;;;0.60;0.50;;;10.20;99.90;;;;;;5032573;28;20493;-73
2022/09/27 07:18:21;;;;;;;0.50;0.50;;;10.20;99.90;;;;;;5032714;28;20529;-73
2022/09/27 07:20:46;;;;;;;0.50;0.50;;;10.20;99.90;;;;;;5032836;28;20179;-73
2022/09/27 07:23:13;;;;;;;1.67;0.93;;;10.10;99.90;;;;;;5032708;28;20653;-73
2022/09/27 07:25:39;;;;;;;0.50;0.50;;;10.30;99.90;;;;;;5032995;28;20184;-73
2022/09/27 07:28:07;;;;;;;0.50;0.47;;;10.30;99.90;;;;;;5032667;28;20509;-73
2022/09/27 07:30:33;;;;;;;1.10;0.40;;;10.40;99.90;;;;;;5032611;28;20181;-72
2022/09/27 07:33:00;;;;;;;0.40;0.40;;;10.30;99.90;;;;;;5032744;28;20464;-73
2022/09/27 07:35:26;;;;;;;1.73;0.50;;;10.30;99.90;;;;;;5032220;28;20425;-73
2022/09/27 07:37:53;;;;;;;0.50;0.50;;;10.20;99.90;;;;;;5031068;28;20926;-73
2022/09/27 07:40:19;;;;;;;0.50;0.50;;;10.10;99.90;;;;;;5032250;28;20421;-73
2022/09/27 07:42:44;;;;;;;0.50;0.50;;;10.10;99.90;;;;;;5032120;28;20539;-72
2022/09/27 07:45:11;;;;;;;0.40;0.40;;;10.10;99.90;;;;;;5032337;28;20391;-73
2022/09/27 07:47:40;;;;;;;1.37;0.40;;;10.20;99.90;;;;;;5032451;28;20282;-73
2022/09/27 07:50:10;;;;;;;1.17;0.90;;;10.70;99.90;;;;;;5032439;28;20615;-73
2022/09/27 07:52:44;;;;;;;2.30;0.70;;;11.00;99.90;;;;;;5032357;28;20440;-73
2022/09/27 07:55:12;;;;;;;0.57;0.50;;;11.30;99.90;;;;;;5032065;28;20423;-72
2022/09/27 07:57:38;;;;;;;0.93;0.60;;;11.60;99.90;;;;;;5032357;28;20423;-73
2022/09/27 08:00:06;;;;;;;1.80;0.60;;;11.80;99.90;;;;;;5032061;28;21090;-73
2022/09/27 08:02:32;;;;;;;2.13;0.60;;;12.00;99.90;;;;;;5031977;28;20818;-73
2022/09/27 08:05:01;;;;;;;1.23;0.60;;;12.40;99.90;;;;;;5032079;28;20413;-73
2022/09/27 08:07:27;;;;;;;1.03;0.77;;;12.40;99.90;;;;;;5031952;28;20190;-73
2022/09/27 08:09:53;;;;;;;7.70;1.63;;;12.20;99.90;;;;;;5031387;28;20792;-73
2022/09/27 08:12:21;;;;;;;0.70;0.70;;;12.10;99.90;;;;;;5031727;28;20433;-73
2022/09/27 08:14:48;;;;;;;1.80;0.70;;;12.00;99.90;;;;;;5031940;28;20547;-73
2022/09/27 08:17:13;;;;;;;0.60;0.60;;;11.80;99.90;;;;;;5031849;28;20413;-73
2022/09/27 08:19:40;;;;;;;2.10;0.80;;;11.70;99.90;;;;;;5031987;28;20464;-72
2022/09/27 08:22:06;;;;;;;2.70;0.70;;;11.80;99.90;;;;;;5031666;28;20228;-73
2022/09/27 08:24:32;;;;;;;0.60;0.50;;;12.30;99.90;;;;;;5031676;28;20416;-72
2022/09/27 08:26:58;;;;;;;1.03;0.60;;;12.70;99.90;;;;;;5032033;28;20484;-73
2022/09/27 08:29:23;;;;;;;0.93;0.60;;;13.20;99.90;;;;;;5031782;28;20182;-72
2022/09/27 08:31:53;;;;;;;1.33;0.70;;;13.70;99.90;;;;;;5032037;28;20444;-73
2022/09/27 08:34:22;;;;;;;2.00;0.50;;;14.00;99.90;;;;;;5031893;28;20749;-72
2022/09/27 08:36:47;;;;;;;0.50;0.50;;;14.50;99.90;;;;;;5032014;28;20936;-72
2022/09/27 08:39:13;;;;;;;1.23;0.50;;;14.90;99.90;;;;;;5031748;28;20455;-73
2022/09/27 08:41:45;;;;;;;0.67;0.50;;;15.50;99.90;;;;;;5031907;28;20194;-73
2022/09/27 08:44:28;;;;;;;1.83;0.50;;;15.20;99.90;;;;;;5031868;28;20516;-73
2022/09/27 08:47:14;;;;;;;0.53;0.50;;;14.60;99.90;;;;;;5031973;28;20769;-73
2022/09/27 08:49:43;;;;;;;0.70;0.50;;;14.00;99.90;;;;;;5032007;28;20412;-73
2022/09/27 08:52:22;;;;;;;0.93;0.70;;;13.70;99.90;;;;;;5031175;28;20963;-72
2022/09/27 08:54:49;;;;;;;4.40;0.80;;;13.20;99.90;;;;;;5031599;28;20417;-72
2022/09/27 08:57:16;;;;;;;4.73;0.87;;;13.00;99.90;;;;;;5031236;28;20417;-73
2022/09/27 09:00:09;;;;;;;0.70;0.70;;;12.90;99.90;;;;;;5031535;28;20513;-72
2022/09/27 09:02:36;;;;;;;1.10;0.53;;;12.60;99.90;;;;;;5031327;28;20453;-73
2022/09/27 09:05:13;;;;;;;0.97;0.70;;;12.50;99.90;;;;;;5031360;28;20932;-72
2022/09/27 09:08:15;;;;;;;0.80;0.70;;;12.30;99.90;;;;;;5031453;28;20909;-73
2022/09/27 09:14:11;;;;;;;4.13;0.60;;;12.00;99.90;;;;;;5031523;28;20450;-72
2022/09/27 09:16:47;;;;;;;1.53;0.70;;;11.80;99.90;;;;;;5031448;28;20398;-73
2022/09/27 09:19:21;;;;;;;4.20;0.60;;;11.60;99.90;;;;;;5031335;28;20475;-73
2022/09/27 09:21:58;;;;;;;2.63;0.63;;;11.30;99.90;;;;;;5032557;28;20451;-73
2022/09/27 09:25:17;;;;;;;1.60;0.60;;;11.40;99.90;;;;;;5034976;28;20480;-73
2022/09/27 09:28:21;;;;;;;8.40;1.37;;;11.80;99.90;;;;;;5034973;28;20495;-72
2022/09/27 09:31:13;;;;;;;0.80;0.63;;;12.10;99.90;;;;;;5034759;28;20412;-73
2022/09/27 09:33:52;;;;;;;2.70;0.63;;;12.20;99.90;;;;;;5034961;28;20424;-73
2022/09/27 09:36:41;;;;;;;0.60;0.60;;;12.40;99.90;;;;;;5034794;28;20404;-72
2022/09/27 09:39:22;;;;;;;0.77;0.77;;;13.10;99.90;;;;;;5033314;28;20462;-73
2022/09/27 09:42:12;;;;;;;1.23;0.63;;;14.00;99.90;;;;;;5035014;28;20449;-73
2022/09/27 09:44:55;;;;;;;1.50;0.70;;;15.00;99.90;;;;;;5034905;28;20431;-72
2022/09/27 09:47:30;;;;;;;1.43;0.60;;;15.70;99.90;;;;;;5034505;28;20412;-73
2022/09/27 09:50:02;;;;;;;4.20;0.80;;;16.30;99.90;;;;;;5034862;28;20613;-73
2022/09/27 09:52:38;;;;;;;1.43;0.70;;;16.60;99.90;;;;;;5034311;28;20448;-73
2022/09/27 09:55:17;;;;;;;0.87;0.87;;;17.10;99.90;;;;;;5034694;28;20416;-72
2022/09/27 09:58:05;;;;;;;3.43;0.90;;;17.50;99.90;;;;;;5034333;28;20829;-73
2022/09/27 10:00:31;;;;;;;0.70;0.70;;;17.40;99.90;;;;;;5034453;28;20825;-72
2022/09/27 10:02:58;;;;;;;1.27;0.77;;;17.50;99.90;;;;;;5034235;28;20974;-73
2022/09/27 10:05:26;;;;;;;3.53;0.77;;;17.00;99.90;;;;;;5034375;28;20250;-73
2022/09/27 10:07:54;;;;;;;1.10;0.87;;;16.70;99.90;;;;;;5034494;28;20409;-73
2022/09/27 10:10:20;;;;;;;1.00;0.70;;;17.20;99.90;;;;;;5034123;28;20410;-72
2022/09/27 10:12:47;;;;;;;0.77;0.77;;;17.40;99.90;;;;;;5034026;28;20421;-73
2022/09/27 10:15:19;;;;;;;1.73;0.60;;;17.80;99.90;;;;;;5033861;28;20459;-73
2022/09/27 10:17:52;;;;;;;2.37;0.70;;;18.20;99.90;;;;;;5034262;28;20412;-73
2022/09/27 10:20:27;;;;;;;1.20;0.93;;;17.60;99.90;;;;;;5034048;28;20496;-73
2022/09/27 10:22:59;;;;;;;3.67;0.80;;;16.90;99.90;;;;;;5034166;28;20840;-73
2022/09/27 10:25:45;;;;;;;2.27;0.70;;;16.40;99.90;;;;;;5033864;28;20401;-72
2022/09/27 10:28:31;;;;;;;0.90;0.90;;;15.80;99.90;;;;;;5033824;28;20407;-72
2022/09/27 10:31:00;;;;;;;1.80;0.80;;;15.30;99.90;;;;;;5033589;28;20479;-72
2022/09/27 10:33:26;;;;;;;0.87;0.60;;;14.80;99.90;;;;;;5033237;28;20417;-72
2022/09/27 10:35:52;;;;;;;5.20;0.90;;;14.50;99.90;;;;;;5033482;28;20781;-72
2022/09/27 10:38:17;;;;;;;1.73;0.87;;;14.10;99.90;;;;;;5033468;28;20455;-72
2022/09/27 10:40:43;;;;;;;5.13;0.83;;;13.90;99.90;;;;;;5033667;28;20181;-72
2022/09/27 10:43:29;;;;;;;0.80;0.80;;;13.50;99.90;;;;;;5033605;28;20174;-72
2022/09/27 10:46:20;;;;;;;0.87;0.67;;;13.30;99.90;;;;;;5033506;28;20413;-72
2022/09/27 10:48:46;;;;;;;2.40;0.90;;;13.30;99.90;;;;;;5033842;28;20408;-72
2022/09/27 10:51:31;;;;;;;1.97;0.73;;;13.40;99.90;;;;;;5033116;28;20799;-72
2022/09/27 10:54:00;;;;;;;2.80;0.60;;;13.60;99.90;;;;;;5033580;28;20670;-72
2022/09/27 10:56:32;;;;;;;1.23;0.73;;;13.70;99.90;;;;;;5033328;28;20425;-73
2022/09/27 10:59:02;;;;;;;1.27;1.17;;;13.90;99.90;;;;;;5033266;28;20460;-72
2022/09/27 11:01:49;;;;;;;0.90;0.57;;;13.90;99.90;;;;;;5033147;28;20489;-72
2022/09/27 11:04:22;;;;;;;2.10;0.70;;;13.80;99.90;;;;;;5032991;28;20441;-73
2022/09/27 11:06:48;;;;;;;4.07;0.80;;;13.80;99.90;;;;;;5033146;28;20425;-73
2022/09/27 11:09:25;;;;;;;1.10;1.00;;;13.70;99.90;;;;;;5032996;28;20466;-72
2022/09/27 11:12:13;;;;;;;1.40;0.73;;;13.60;99.90;;;;;;5033023;28;20200;-72
2022/09/27 11:14:39;;;;;;;1.57;0.70;;;13.60;99.90;;;;;;5032806;28;20435;-71
2022/09/27 11:17:26;;;;;;;1.90;0.83;;;13.80;99.90;;;;;;5032895;28;20474;-72
2022/09/27 11:20:15;;;;;;;1.33;0.70;;;13.80;99.90;;;;;;5033195;28;20530;-72
2022/09/27 11:23:10;;;;;;;0.90;0.80;;;13.70;99.90;;;;;;5032656;28;20902;-72
2022/09/27 11:26:01;;;;;;;0.80;0.80;;;13.70;99.90;;;;;;5032756;28;20499;-72
2022/09/27 11:28:42;;;;;;;3.17;0.67;;;13.80;99.90;;;;;;5032478;28;20990;-72
2022/09/27 11:31:12;;;;;;;0.73;0.73;;;13.80;99.90;;;;;;5032517;28;20448;-72
2022/09/27 11:34:16;;;;;;;1.27;0.83;;;13.80;99.90;;;;;;5032685;28;20427;-72
2022/09/27 11:36:50;;;;;;;1.47;0.50;;;13.80;99.90;;;;;;5023897;28;20432;-72
2022/09/27 11:39:25;;;;;;;1.77;0.70;;;13.70;99.90;;;;;;5032367;28;20460;-72
2022/09/27 11:42:22;;;;;;;1.33;0.77;;;13.60;99.90;;;;;;5032349;28;20432;-73
2022/09/27 11:45:00;;;;;;;0.73;0.60;;;13.60;99.90;;;;;;5031472;28;20412;-72
2022/09/27 11:47:48;;;;;;;1.27;0.60;;;13.50;99.90;;;;;;5032192;28;20405;-72
2022/09/27 11:50:34;;;;;;;0.97;0.57;;;13.30;99.90;;;;;;5032600;28;20412;-72
2022/09/27 11:53:33;;;;;;;0.50;0.50;;;13.20;99.90;;;;;;5033538;28;20418;-72
2022/09/27 11:56:18;;;;;;;1.10;0.50;;;13.20;99.90;;;;;;5032362;28;20425;-73
2022/09/27 11:59:05;;;;;;;0.53;0.50;;;13.10;99.90;;;;;;5032059;28;20821;-72
2022/09/27 12:01:53;;;;;;;1.10;1.10;;;13.00;99.90;;;;;;5032053;28;20437;-72
2022/09/27 12:04:43;;;;;;;0.50;0.30;;;12.30;99.90;;;;;;5032208;28;20424;-72
2022/09/27 12:07:23;;;;;;;0.40;0.40;;;11.60;99.90;;;;;;5033056;28;20510;-72
2022/09/27 12:09:54;;;;;;;0.50;0.40;;;11.20;99.90;;;;;;5032932;28;20448;-72
2022/09/27 12:12:23;;;;;;;0.97;0.50;;;11.00;99.90;;;;;;5031753;28;20436;-72
2022/09/27 12:14:55;;;;;;;0.40;0.40;;;10.70;99.90;;;;;;5031941;28;20419;-71
2022/09/27 12:17:26;;;;;;;2.37;0.93;;;10.60;99.90;;;;;;5031849;28;20414;-73
2022/09/27 12:19:55;;;;;;;0.50;0.50;;;10.70;99.90;;;;;;5031878;28;20473;-73
2022/09/27 12:22:37;;;;;;;0.50;0.47;;;10.70;99.90;;;;;;5031872;28;20483;-73
2022/09/27 12:25:03;;;;;;;0.50;0.50;;;10.60;99.90;;;;;;5031854;28;20433;-72
2022/09/27 12:27:42;;;;;;;1.00;0.50;;;10.40;99.90;;;;;;5031689;28;20413;-72
2022/09/27 12:30:11;;;;;;;1.10;0.60;;;10.30;99.90;;;;;;5032218;28;20422;-73
2022/09/27 12:33:04;;;;;;;0.40;0.40;;;10.30;99.90;;;;;;5031597;28;20465;-73
2022/09/27 12:35:52;;;;;;;0.40;0.40;;;10.30;99.90;;;;;;5031700;28;20886;-72
2022/09/27 12:38:28;;;;;;;0.73;0.60;;;10.40;99.90;;;;;;5032264;28;20452;-72
2022/09/27 12:40:58;;;;;;;3.83;0.40;;;10.50;99.90;;;;;;5032063;28;20451;-72
2022/09/27 12:43:27;;;;;;;0.60;0.50;;;10.50;99.90;;;;;;5032256;28;20415;-73
2022/09/27 12:46:12;;;;;;;1.03;0.60;;;10.50;99.90;;;;;;5031870;28;20434;-73
2022/09/27 12:48:50;;;;;;;4.53;0.60;;;10.50;99.90;;;;;;5031747;28;20415;-72
2022/09/27 12:51:19;;;;;;;0.83;0.83;;;10.60;99.90;;;;;;5030348;28;20534;-73
2022/09/27 12:54:11;;;;;;;1.57;0.50;;;10.80;99.90;;;;;;5032508;28;20466;-73
2022/09/27 12:57:03;;;;;;;4.77;0.53;;;10.90;99.90;;;;;;5034225;28;20866;-73
2022/09/27 12:59:52;;;;;;;0.93;0.60;;;11.00;99.90;;;;;;5032409;28;20483;-72
2022/09/27 13:02:39;;;;;;;0.50;0.50;;;11.20;99.90;;;;;;5035471;28;20440;-72
2022/09/27 13:05:08;;;;;;;0.90;0.60;;;11.40;99.90;;;;;;5035596;28;20501;-73
2022/09/27 13:07:40;;;;;;;0.70;0.60;;;11.40;99.90;;;;;;5035552;28;20451;-73
2022/09/27 13:10:28;;;;;;;0.50;0.50;;;11.40;99.90;;;;;;5034444;28;20915;-73
2022/09/27 13:12:54;;;;;;;0.60;0.60;;;11.50;99.90;;;;;;5035627;28;20449;-73
2022/09/27 13:15:47;;;;;;;0.70;0.70;;;11.50;99.90;;;;;;5035516;28;20416;-73
2022/09/27 13:18:35;;;;;;;3.70;0.57;;;11.40;99.90;;;;;;5034188;28;20873;-73
2022/09/27 13:21:05;;;;;;;0.60;0.60;;;11.30;99.90;;;;;;5031450;28;20447;-74
2022/09/27 13:23:31;;;;;;;0.70;0.60;;;11.10;99.90;;;;;;5035001;28;20444;-73
2022/09/27 13:25:59;;;;;;;1.87;0.70;;;10.90;99.90;;;;;;5035049;28;20946;-73
2022/09/27 13:28:30;;;;;;;1.10;0.67;;;10.60;99.90;;;;;;5034828;28;20194;-73
2022/09/27 13:30:59;;;;;;;0.93;0.83;;;10.50;99.90;;;;;;5034862;28;20934;-73
2022/09/27 13:33:45;;;;;;;1.53;0.73;;;10.30;99.90;;;;;;5034801;28;20417;-73
2022/09/27 13:36:27;;;;;;;3.00;1.20;;;10.20;99.90;;;;;;5034622;28;20499;-73
2022/09/27 13:39:04;;;;;;;1.17;1.07;;;10.10;99.90;;;;;;5035069;28;20824;-73
2022/09/27 13:41:45;;;;;;;1.57;0.80;;;10.10;99.90;;;;;;5034368;28;20867;-73
2022/09/27 13:44:17;;;;;;;4.50;1.10;;;10.10;99.90;;;;;;5034621;28;20953;-74
2022/09/27 13:46:50;;;;;;;2.20;1.10;;;10.10;99.90;;;;;;5034667;28;20935;-73
2022/09/27 13:49:29;;;;;;;2.23;0.93;;;10.30;99.90;;;;;;5034439;28;20450;-73
2022/09/27 13:52:00;;;;;;;1.03;0.70;;;10.50;99.90;;;;;;5034554;28;20783;-73
2022/09/27 13:54:49;;;;;;;0.70;0.70;;;10.50;99.90;;;;;;5034559;28;20417;-73
2022/09/27 13:57:52;;;;;;;1.87;1.60;;;10.40;99.90;;;;;;5034107;28;20770;-74
2022/09/27 14:00:25;;;;;;;3.53;0.80;;;10.40;99.90;;;;;;5034761;28;20532;-74
2022/09/27 14:02:57;;;;;;;0.90;0.70;;;10.30;99.90;;;;;;5034891;28;20496;-74
2022/09/27 14:05:48;;;;;;;1.13;0.60;;;10.20;99.90;;;;;;5034789;28;20389;-74
2022/09/27 14:08:25;;;;;;;0.80;0.80;;;10.20;99.90;;;;;;5033682;28;20409;-74
2022/09/27 14:10:52;;;;;;;3.77;0.90;;;10.00;99.90;;;;;;5033978;28;20397;-74
2022/09/27 14:13:19;;;;;;;1.13;0.60;;;10.00;99.90;;;;;;5034042;28;20420;-74
2022/09/27 14:15:46;;;;;;;0.77;0.77;;;9.90;99.90;;;;;;5033905;28;20421;-74
2022/09/27 14:18:13;;;;;;;1.00;0.90;;;9.80;99.90;;;;;;5033733;28;20518;-74
2022/09/27 14:20:45;;;;;;;1.77;1.03;;;9.80;99.90;;;;;;5033925;28;20420;-73
2022/09/27 14:23:23;;;;;;;3.53;0.83;;;9.70;99.90;;;;;;5033581;28;20420;-73
2022/09/27 14:25:51;;;;;;;5.10;1.13;;;9.70;99.90;;;;;;5033867;28;20415;-73
2022/09/27 14:28:39;;;;;;;1.50;1.17;;;9.70;99.90;;;;;;5033597;28;20881;-74
2022/09/27 14:31:21;;;;;;;2.00;0.80;;;9.70;99.90;;;;;;5033499;28;20451;-74
2022/09/27 14:33:47;;;;;;;2.13;0.90;;;9.70;99.90;;;;;;5033690;28;20502;-74
2022/09/27 14:39:24;;;;;;;1.27;0.77;;;9.80;99.90;;;;;;5033331;28;20463;-74
2022/09/27 14:41:50;;;;;;;1.27;0.73;;;9.90;99.90;;;;;;5033487;28;20444;-74
2022/09/27 14:44:19;;;;;;;2.30;0.80;;;10.10;99.90;;;;;;5033339;28;20949;-74
2022/09/27 14:46:46;;;;;;;0.90;0.80;;;10.20;99.90;;;;;;5033373;28;20418;-74
2022/09/27 14:49:20;;;;;;;2.77;1.07;;;10.40;99.90;;;;;;5034004;28;20497;-74
2022/09/27 14:51:53;;;;;;;0.93;0.87;;;10.50;99.90;;;;;;5033513;28;20435;-74
2022/09/27 14:54:21;;;;;;;1.20;0.70;;;10.70;99.90;;;;;;5033330;28;20450;-74
2022/09/27 14:56:48;;;;;;;0.80;0.80;;;10.90;99.90;;;;;;5033558;28;20521;-74